Forside
METAR-TAF:

METAR-TAF

Lufthavne :

Rantoul National Aviation Center Airport (Frank Elliott Field)

Rantoul, Illinois, USA

Breddekreds: 40-17-37N, længdekreds: 088-08-33W, højde: 225 m

Aktuelle vejr

Denne rapport blev lavet for 19 minutter siden, kl. 21:15 UTC
Vind 9 kt fra vestsydvest
Temperatur 3°C
Fugtighed 81%
Tryk 1013 hPa
Sigt: 16.1 km
Spredte skyer i en højde af 1800 ft
Spredte skyer i en højde af 3600 ft

METAR: KTIP 262115Z AUTO 25009KT 10SM SCT018 SCT036 03/00 A2991 RMK AO2 T00340001

Tid: 15:34 (21:34 UTC)


TAF: fraværende

Vejrobservationer og prognoser fra mere end 4000 lufthavne (METAR og TAF).

De gule og røde prikker repræsenterer de meteorologiske stationer.

Flyt musen over at se navnet på stationen.

Så klik over at se vejr observationer og prognoser.

At skifte det kort: Klik på de grønne knapper med et sort kors for at zoome ind; på den grønne knap med en bindestreg for at zoome ud; eller på de grønne pile for tilstødende kort.


METAR-TAF: